»·PEaware :: N512PC KBFL-KMHV

N512PC :: KBFL-KMHV

FLIGHT INFORMATION

Flight Status: Arrived
Operator: Privately registered:
United States
More flights under this callsign
Pilot: Jacob V. (20481)
Aircraft: CESSNA 172 SKYHAWK
(C172)
More flights by this aircraft type
Origin: KBFL Meadows
United States
Destination: KMHV Mojave
United States
More flights between these airports :: More routes between these airports
Route: +
File this flight plan on PilotEdge
Remarks:
Altitude:
(Current/Filed)
7,500ft
Speed:
(Current/Filed)
0kts
Departed: 23-Sep-18 01:52 PM
Arrived: 23-Sep-18 02:24 PM
Distance/Time
Traveled:
50nm/0:32
Distance/Time
To Go:
Arrived

Flight Plot

Page will automatically refresh every two minutes.


Map Options




Map Legend


Flown Route
Filed Route
Departure Airport
Arrival Airport
Navaid (VOR, NDB)
Fix

Horizontal Profiles

Position Reports

Time Latitude Longitude Heading Altitude Ground
Speed
23-Sep-18 13:41 35.429211 -119.046265 214 494ft 0kts
23-Sep-18 13:42 35.429211 -119.046265 214 494ft 0kts
23-Sep-18 13:43 35.429211 -119.046265 214 494ft 0kts
23-Sep-18 13:44 35.429211 -119.046265 214 494ft 0kts
23-Sep-18 13:45 35.429211 -119.046265 214 494ft 0kts
23-Sep-18 13:46 35.429211 -119.046265 214 494ft 0kts
23-Sep-18 13:47 35.428506 -119.046205 137 491ft 0kts
23-Sep-18 13:48 35.427758 -119.046069 223 487ft 0kts
23-Sep-18 13:49 35.426246 -119.044787 135 482ft 4kts
23-Sep-18 13:50 35.425714 -119.044740 226 479ft 0kts
23-Sep-18 13:51 35.425714 -119.044740 226 480ft 0kts
23-Sep-18 13:52 35.425714 -119.044740 225 479ft 0kts
23-Sep-18 13:53 35.425672 -119.044792 225 479ft 0kts
23-Sep-18 13:54 35.432918 -119.055206 312 696ft 78kts
23-Sep-18 13:55 35.449718 -119.059680 69 1444ft 83kts
23-Sep-18 13:56 35.435221 -119.038911 137 2178ft 82kts
23-Sep-18 13:57 35.421924 -119.016818 81 2842ft 86kts
23-Sep-18 13:58 35.422519 -118.987980 91 3496ft 86kts
23-Sep-18 13:59 35.416205 -118.960569 121 4100ft 89kts
23-Sep-18 14:00 35.402213 -118.935815 124 4683ft 88kts
23-Sep-18 14:01 35.389636 -118.909496 117 5219ft 90kts
23-Sep-18 14:02 35.376945 -118.882792 119 5723ft 91kts
23-Sep-18 14:03 35.363632 -118.856077 119 6197ft 92kts
23-Sep-18 14:04 35.349019 -118.829826 128 6641ft 94kts
23-Sep-18 14:05 35.333423 -118.803939 119 7082ft 95kts
23-Sep-18 14:06 35.319743 -118.775747 114 7489ft 98kts
23-Sep-18 14:07 35.306140 -118.742380 118 7571ft 118kts
23-Sep-18 14:08 35.290014 -118.707578 119 7454ft 117kts
23-Sep-18 14:09 35.275152 -118.673244 117 7438ft 112kts
23-Sep-18 14:10 35.260229 -118.641708 124 7599ft 108kts
23-Sep-18 14:11 35.243068 -118.609975 123 7698ft 112kts
23-Sep-18 14:12 35.227599 -118.575996 121 7765ft 115kts
23-Sep-18 14:13 35.209869 -118.542595 127 7766ft 122kts
23-Sep-18 14:14 35.190376 -118.508705 127 7789ft 122kts
23-Sep-18 14:15 35.170490 -118.474610 129 7699ft 124kts
23-Sep-18 14:16 35.150247 -118.439913 117 7459ft 127kts
23-Sep-18 14:17 35.137076 -118.400177 106 7274ft 125kts
23-Sep-18 14:18 35.126424 -118.359818 109 7440ft 125kts
23-Sep-18 14:19 35.114574 -118.320892 109 7468ft 125kts
23-Sep-18 14:20 35.103445 -118.280332 110 7470ft 126kts
23-Sep-18 14:21 35.090574 -118.242271 113 6520ft 124kts
23-Sep-18 14:22 35.079637 -118.201963 130 5175ft 143kts
23-Sep-18 14:23 35.067465 -118.160358 99 3796ft 131kts
23-Sep-18 14:24 35.065323 -118.123375 125 3621ft 79kts
23-Sep-18 14:25 35.059089 -118.134490 264 3017ft 54kts
23-Sep-18 14:26 35.059146 -118.147500 271 2745ft 12kts
23-Sep-18 14:27 35.057428 -118.149602 177 2744ft 8kts
23-Sep-18 14:28 35.056339 -118.150037 86 2743ft 0kts
23-Sep-18 14:29 35.056339 -118.150037 87 2743ft 0kts
23-Sep-18 14:30 35.056342 -118.150360 92 2743ft 0kts
23-Sep-18 14:31 35.056342 -118.150360 91 2743ft 0kts
23-Sep-18 14:32 35.056342 -118.150360 91 2743ft 0kts

Navigation Log

Ident Type
1. KBFL Airport
2. KMHV Airport